Terminal Aerodrome Forecast
Issued by NWS Sterling, VA

Current Version | Previous Version | Graphics & Text | Print | Product List | Glossary On
Versions: 1 2 3 4 5 6 7 8 9 10 11 12 13 14 15 16 17 18 19 20 21 22 23 24 25 26
000
FTUS41 KLWX 240500
TAFIAD
TAF
KIAD 240537Z 2406/2512 35003KT 1 1/2SM RAPL BR BKN004 OVC022
     FM240900 36006KT 2SM -SN OVC004
     FM241400 34008KT 2SM -RASN OVC003
     FM241700 31009KT 2SM -RASN OVC008
     FM241800 30010KT P6SM OVC010
     FM242000 30012G20KT P6SM BKN060
     FM242100 30013G21KT P6SM SCT110
     FM250000 29008KT P6SM FEW250=

USA.gov is the U.S. government's official web portal to all federal, state and local government web resources and services.